sensor_id;sensor_type;location;lat;lon;timestamp;P1;durP1;ratioP1;P2;durP2;ratioP2
2576;SDS011;1298;51.252;6.802;2023-07-29T00:01:45;775.90;;;722.45;;
2576;SDS011;1298;51.252;6.802;2023-07-29T00:04:30;755.97;;;703.38;;
2576;SDS011;1298;51.252;6.802;2023-07-29T00:07:16;761.90;;;708.92;;
2576;SDS011;1298;51.252;6.802;2023-07-29T00:10:03;759.08;;;706.10;;
2576;SDS011;1298;51.252;6.802;2023-07-29T00:12:49;854.92;;;799.28;;
2576;SDS011;1298;51.252;6.802;2023-07-29T00:15:34;844.08;;;788.95;;
2576;SDS011;1298;51.252;6.802;2023-07-29T00:18:20;773.97;;;720.60;;
2576;SDS011;1298;51.252;6.802;2023-07-29T00:21:05;764.95;;;712.05;;
2576;SDS011;1298;51.252;6.802;2023-07-29T00:23:51;798.72;;;744.80;;
2576;SDS011;1298;51.252;6.802;2023-07-29T00:26:38;864.95;;;808.88;;
2576;SDS011;1298;51.252;6.802;2023-07-29T00:29:23;770.20;;;716.88;;
2576;SDS011;1298;51.252;6.802;2023-07-29T00:32:09;797.90;;;743.92;;
2576;SDS011;1298;51.252;6.802;2023-07-29T00:34:54;789.28;;;735.42;;
2576;SDS011;1298;51.252;6.802;2023-07-29T00:37:40;833.20;;;778.33;;
2576;SDS011;1298;51.252;6.802;2023-07-29T00:40:27;782.03;;;728.20;;
2576;SDS011;1298;51.252;6.802;2023-07-29T00:43:15;778.38;;;724.95;;
2576;SDS011;1298;51.252;6.802;2023-07-29T00:46:01;856.45;;;800.70;;
2576;SDS011;1298;51.252;6.802;2023-07-29T00:48:46;778.22;;;724.40;;
2576;SDS011;1298;51.252;6.802;2023-07-29T00:51:32;761.70;;;708.67;;
2576;SDS011;1298;51.252;6.802;2023-07-29T00:54:17;838.65;;;783.63;;
2576;SDS011;1298;51.252;6.802;2023-07-29T00:57:03;859.03;;;802.75;;
2576;SDS011;1298;51.252;6.802;2023-07-29T00:59:50;766.72;;;713.40;;
2576;SDS011;1298;51.252;6.802;2023-07-29T01:02:36;768.83;;;715.20;;
2576;SDS011;1298;51.252;6.802;2023-07-29T01:05:22;763.28;;;709.97;;
2576;SDS011;1298;51.252;6.802;2023-07-29T01:08:11;756.10;;;703.20;;
2576;SDS011;1298;51.252;6.802;2023-07-29T01:11:08;846.47;;;790.83;;
2576;SDS011;1298;51.252;6.802;2023-07-29T01:14:07;756.22;;;703.45;;
2576;SDS011;1298;51.252;6.802;2023-07-29T01:17:02;754.03;;;701.22;;
2576;SDS011;1298;51.252;6.802;2023-07-29T01:19:55;746.47;;;693.88;;
2576;SDS011;1298;51.252;6.802;2023-07-29T01:22:47;766.40;;;713.05;;
2576;SDS011;1298;51.252;6.802;2023-07-29T01:25:34;824.83;;;769.75;;
2576;SDS011;1298;51.252;6.802;2023-07-29T01:28:20;755.88;;;702.83;;
2576;SDS011;1298;51.252;6.802;2023-07-29T01:31:06;817.85;;;763.30;;
2576;SDS011;1298;51.252;6.802;2023-07-29T01:33:57;762.25;;;709.35;;
2576;SDS011;1298;51.252;6.802;2023-07-29T01:36:46;773.03;;;719.80;;
2576;SDS011;1298;51.252;6.802;2023-07-29T01:39:34;763.97;;;710.97;;
2576;SDS011;1298;51.252;6.802;2023-07-29T01:42:23;770.00;;;716.70;;
2576;SDS011;1298;51.252;6.802;2023-07-29T01:45:09;778.88;;;725.22;;
2576;SDS011;1298;51.252;6.802;2023-07-29T01:47:55;763.92;;;710.88;;
2576;SDS011;1298;51.252;6.802;2023-07-29T01:50:40;850.25;;;794.65;;
2576;SDS011;1298;51.252;6.802;2023-07-29T01:53:26;781.83;;;728.10;;
2576;SDS011;1298;51.252;6.802;2023-07-29T01:56:11;833.38;;;778.42;;
2576;SDS011;1298;51.252;6.802;2023-07-29T01:58:58;755.92;;;703.00;;
2576;SDS011;1298;51.252;6.802;2023-07-29T02:01:43;755.97;;;702.88;;
2576;SDS011;1298;51.252;6.802;2023-07-29T02:04:30;844.40;;;789.13;;
2576;SDS011;1298;51.252;6.802;2023-07-29T02:07:16;769.53;;;716.40;;
2576;SDS011;1298;51.252;6.802;2023-07-29T02:10:01;760.83;;;707.78;;
2576;SDS011;1298;51.252;6.802;2023-07-29T02:12:47;760.08;;;707.08;;
2576;SDS011;1298;51.252;6.802;2023-07-29T02:15:34;772.22;;;719.00;;
2576;SDS011;1298;51.252;6.802;2023-07-29T02:18:19;757.83;;;704.95;;
2576;SDS011;1298;51.252;6.802;2023-07-29T02:21:05;738.55;;;686.15;;
2576;SDS011;1298;51.252;6.802;2023-07-29T02:23:50;750.33;;;697.35;;
2576;SDS011;1298;51.252;6.802;2023-07-29T02:26:36;740.47;;;688.30;;
2576;SDS011;1298;51.252;6.802;2023-07-29T02:29:21;738.58;;;686.33;;
2576;SDS011;1298;51.252;6.802;2023-07-29T02:32:08;742.00;;;689.38;;
2576;SDS011;1298;51.252;6.802;2023-07-29T02:34:53;851.42;;;795.83;;
2576;SDS011;1298;51.252;6.802;2023-07-29T02:37:39;757.15;;;704.22;;
2576;SDS011;1298;51.252;6.802;2023-07-29T02:40:25;826.05;;;771.22;;
2576;SDS011;1298;51.252;6.802;2023-07-29T02:43:11;742.35;;;690.00;;
2576;SDS011;1298;51.252;6.802;2023-07-29T02:45:57;755.22;;;702.55;;
2576;SDS011;1298;51.252;6.802;2023-07-29T02:48:44;819.25;;;764.72;;
2576;SDS011;1298;51.252;6.802;2023-07-29T02:51:29;771.78;;;718.35;;
2576;SDS011;1298;51.252;6.802;2023-07-29T02:54:15;747.55;;;694.75;;
2576;SDS011;1298;51.252;6.802;2023-07-29T02:57:00;751.90;;;699.17;;
2576;SDS011;1298;51.252;6.802;2023-07-29T02:59:46;753.70;;;701.10;;
2576;SDS011;1298;51.252;6.802;2023-07-29T03:02:31;736.92;;;684.78;;
2576;SDS011;1298;51.252;6.802;2023-07-29T03:05:18;843.28;;;787.85;;
2576;SDS011;1298;51.252;6.802;2023-07-29T03:08:04;736.90;;;684.65;;
2576;SDS011;1298;51.252;6.802;2023-07-29T03:10:49;749.63;;;697.33;;
2576;SDS011;1298;51.252;6.802;2023-07-29T03:13:35;754.78;;;702.05;;
2576;SDS011;1298;51.252;6.802;2023-07-29T03:16:20;751.90;;;699.38;;
2576;SDS011;1298;51.252;6.802;2023-07-29T03:19:06;749.47;;;696.88;;
2576;SDS011;1298;51.252;6.802;2023-07-29T03:21:53;741.45;;;688.95;;
2576;SDS011;1298;51.252;6.802;2023-07-29T03:24:38;742.75;;;690.00;;
2576;SDS011;1298;51.252;6.802;2023-07-29T03:27:24;724.42;;;672.17;;
2576;SDS011;1298;51.252;6.802;2023-07-29T03:30:09;754.50;;;701.65;;
2576;SDS011;1298;51.252;6.802;2023-07-29T03:32:55;751.70;;;698.72;;
2576;SDS011;1298;51.252;6.802;2023-07-29T03:35:41;847.13;;;791.47;;
2576;SDS011;1298;51.252;6.802;2023-07-29T03:38:29;732.05;;;679.78;;
2576;SDS011;1298;51.252;6.802;2023-07-29T03:41:16;741.47;;;688.92;;
2576;SDS011;1298;51.252;6.802;2023-07-29T03:44:02;845.08;;;789.55;;
2576;SDS011;1298;51.252;6.802;2023-07-29T03:46:48;740.58;;;688.15;;
2576;SDS011;1298;51.252;6.802;2023-07-29T03:49:34;736.17;;;683.72;;
2576;SDS011;1298;51.252;6.802;2023-07-29T03:52:19;746.50;;;693.72;;
2576;SDS011;1298;51.252;6.802;2023-07-29T03:55:07;728.38;;;676.20;;
2576;SDS011;1298;51.252;6.802;2023-07-29T03:57:53;735.88;;;683.53;;
2576;SDS011;1298;51.252;6.802;2023-07-29T04:00:38;732.17;;;679.42;;
2576;SDS011;1298;51.252;6.802;2023-07-29T04:03:24;794.97;;;741.08;;
2576;SDS011;1298;51.252;6.802;2023-07-29T04:06:10;713.15;;;661.40;;
2576;SDS011;1298;51.252;6.802;2023-07-29T04:08:55;708.13;;;656.58;;
2576;SDS011;1298;51.252;6.802;2023-07-29T04:11:42;792.47;;;738.47;;
2576;SDS011;1298;51.252;6.802;2023-07-29T04:14:28;702.03;;;649.95;;
2576;SDS011;1298;51.252;6.802;2023-07-29T04:17:14;723.83;;;671.35;;
2576;SDS011;1298;51.252;6.802;2023-07-29T04:19:59;702.80;;;651.17;;
2576;SDS011;1298;51.252;6.802;2023-07-29T04:22:45;782.95;;;729.55;;
2576;SDS011;1298;51.252;6.802;2023-07-29T04:25:30;723.95;;;671.97;;
2576;SDS011;1298;51.252;6.802;2023-07-29T04:28:17;696.95;;;645.70;;
2576;SDS011;1298;51.252;6.802;2023-07-29T04:31:03;700.63;;;649.22;;
2576;SDS011;1298;51.252;6.802;2023-07-29T04:33:48;719.72;;;667.92;;
2576;SDS011;1298;51.252;6.802;2023-07-29T04:36:34;697.85;;;646.58;;
2576;SDS011;1298;51.252;6.802;2023-07-29T04:39:19;695.45;;;644.40;;
2576;SDS011;1298;51.252;6.802;2023-07-29T04:42:05;700.70;;;649.20;;
2576;SDS011;1298;51.252;6.802;2023-07-29T04:44:52;689.63;;;638.45;;
2576;SDS011;1298;51.252;6.802;2023-07-29T04:47:37;695.92;;;644.42;;
2576;SDS011;1298;51.252;6.802;2023-07-29T04:50:23;690.30;;;639.17;;
2576;SDS011;1298;51.252;6.802;2023-07-29T04:53:08;695.28;;;644.13;;
2576;SDS011;1298;51.252;6.802;2023-07-29T04:55:54;797.78;;;743.90;;
2576;SDS011;1298;51.252;6.802;2023-07-29T04:58:40;699.67;;;648.13;;
2576;SDS011;1298;51.252;6.802;2023-07-29T05:01:27;708.53;;;656.33;;
2576;SDS011;1298;51.252;6.802;2023-07-29T05:04:12;808.50;;;754.22;;
2576;SDS011;1298;51.252;6.802;2023-07-29T05:06:58;714.20;;;661.88;;
2576;SDS011;1298;51.252;6.802;2023-07-29T05:09:44;784.50;;;730.20;;
2576;SDS011;1298;51.252;6.802;2023-07-29T05:12:29;709.10;;;657.15;;
2576;SDS011;1298;51.252;6.802;2023-07-29T05:15:16;722.33;;;669.90;;
2576;SDS011;1298;51.252;6.802;2023-07-29T05:18:03;727.17;;;674.92;;
2576;SDS011;1298;51.252;6.802;2023-07-29T05:20:49;722.88;;;670.70;;
2576;SDS011;1298;51.252;6.802;2023-07-29T05:23:34;711.40;;;659.28;;
2576;SDS011;1298;51.252;6.802;2023-07-29T05:26:20;712.13;;;660.05;;
2576;SDS011;1298;51.252;6.802;2023-07-29T05:29:06;720.40;;;667.80;;
2576;SDS011;1298;51.252;6.802;2023-07-29T05:31:54;719.75;;;667.20;;
2576;SDS011;1298;51.252;6.802;2023-07-29T05:34:42;795.92;;;741.47;;
2576;SDS011;1298;51.252;6.802;2023-07-29T05:37:27;807.55;;;752.90;;
2576;SDS011;1298;51.252;6.802;2023-07-29T05:40:12;725.13;;;672.67;;
2576;SDS011;1298;51.252;6.802;2023-07-29T05:42:58;725.03;;;672.58;;
2576;SDS011;1298;51.252;6.802;2023-07-29T05:45:44;713.33;;;660.53;;
2576;SDS011;1298;51.252;6.802;2023-07-29T05:48:30;717.58;;;664.08;;
2576;SDS011;1298;51.252;6.802;2023-07-29T05:51:17;710.40;;;658.10;;
2576;SDS011;1298;51.252;6.802;2023-07-29T05:54:03;809.55;;;754.42;;
2576;SDS011;1298;51.252;6.802;2023-07-29T05:56:49;798.13;;;743.42;;
2576;SDS011;1298;51.252;6.802;2023-07-29T05:59:34;704.28;;;652.28;;
2576;SDS011;1298;51.252;6.802;2023-07-29T06:02:19;724.65;;;672.35;;
2576;SDS011;1298;51.252;6.802;2023-07-29T06:05:05;718.10;;;665.65;;
2576;SDS011;1298;51.252;6.802;2023-07-29T06:07:53;714.88;;;662.47;;
2576;SDS011;1298;51.252;6.802;2023-07-29T06:10:38;714.35;;;662.35;;
2576;SDS011;1298;51.252;6.802;2023-07-29T06:13:23;713.22;;;661.22;;
2576;SDS011;1298;51.252;6.802;2023-07-29T06:16:09;796.33;;;741.78;;
2576;SDS011;1298;51.252;6.802;2023-07-29T06:18:54;727.15;;;674.75;;
2576;SDS011;1298;51.252;6.802;2023-07-29T06:21:40;712.83;;;660.72;;
2576;SDS011;1298;51.252;6.802;2023-07-29T06:24:27;728.65;;;676.25;;
2576;SDS011;1298;51.252;6.802;2023-07-29T06:27:13;729.13;;;676.47;;
2576;SDS011;1298;51.252;6.802;2023-07-29T06:29:58;709.78;;;657.83;;
2576;SDS011;1298;51.252;6.802;2023-07-29T06:32:44;720.05;;;667.65;;
2576;SDS011;1298;51.252;6.802;2023-07-29T06:35:30;728.08;;;675.53;;
2576;SDS011;1298;51.252;6.802;2023-07-29T06:38:15;724.08;;;671.70;;
2576;SDS011;1298;51.252;6.802;2023-07-29T06:41:06;815.85;;;761.13;;
2576;SDS011;1298;51.252;6.802;2023-07-29T06:43:52;733.65;;;681.28;;
2576;SDS011;1298;51.252;6.802;2023-07-29T06:46:37;797.15;;;742.83;;
2576;SDS011;1298;51.252;6.802;2023-07-29T06:49:23;714.33;;;662.22;;
2576;SDS011;1298;51.252;6.802;2023-07-29T06:52:08;726.22;;;673.80;;
2576;SDS011;1298;51.252;6.802;2023-07-29T06:54:54;720.30;;;667.97;;
2576;SDS011;1298;51.252;6.802;2023-07-29T06:57:41;723.05;;;670.85;;
2576;SDS011;1298;51.252;6.802;2023-07-29T07:00:26;745.00;;;692.15;;
2576;SDS011;1298;51.252;6.802;2023-07-29T07:03:12;735.83;;;683.10;;
2576;SDS011;1298;51.252;6.802;2023-07-29T07:05:58;726.72;;;674.15;;
2576;SDS011;1298;51.252;6.802;2023-07-29T07:08:43;743.47;;;690.40;;
2576;SDS011;1298;51.252;6.802;2023-07-29T07:11:29;739.55;;;686.78;;
2576;SDS011;1298;51.252;6.802;2023-07-29T07:14:16;740.13;;;687.35;;
2576;SDS011;1298;51.252;6.802;2023-07-29T07:17:02;860.60;;;804.22;;
2576;SDS011;1298;51.252;6.802;2023-07-29T07:19:48;776.85;;;723.05;;
2576;SDS011;1298;51.252;6.802;2023-07-29T07:22:33;788.58;;;734.33;;
2576;SDS011;1298;51.252;6.802;2023-07-29T07:25:19;768.70;;;715.10;;
2576;SDS011;1298;51.252;6.802;2023-07-29T07:28:05;871.63;;;815.00;;
2576;SDS011;1298;51.252;6.802;2023-07-29T07:30:51;758.95;;;705.60;;
2576;SDS011;1298;51.252;6.802;2023-07-29T07:33:39;760.70;;;707.35;;
2576;SDS011;1298;51.252;6.802;2023-07-29T07:36:24;752.95;;;699.63;;
2576;SDS011;1298;51.252;6.802;2023-07-29T07:39:10;760.15;;;706.70;;
2576;SDS011;1298;51.252;6.802;2023-07-29T07:41:56;762.63;;;709.38;;
2576;SDS011;1298;51.252;6.802;2023-07-29T07:44:41;831.60;;;776.10;;
2576;SDS011;1298;51.252;6.802;2023-07-29T07:47:28;773.85;;;720.20;;
2576;SDS011;1298;51.252;6.802;2023-07-29T07:50:14;742.33;;;689.63;;
2576;SDS011;1298;51.252;6.802;2023-07-29T07:52:59;752.97;;;699.83;;
2576;SDS011;1298;51.252;6.802;2023-07-29T07:55:45;740.50;;;687.78;;
2576;SDS011;1298;51.252;6.802;2023-07-29T07:58:30;849.60;;;793.72;;
2576;SDS011;1298;51.252;6.802;2023-07-29T08:01:15;744.13;;;691.33;;
2576;SDS011;1298;51.252;6.802;2023-07-29T08:04:02;735.72;;;683.17;;
2576;SDS011;1298;51.252;6.802;2023-07-29T08:06:48;760.28;;;707.35;;
2576;SDS011;1298;51.252;6.802;2023-07-29T08:09:34;761.58;;;708.25;;
2576;SDS011;1298;51.252;6.802;2023-07-29T08:12:19;762.90;;;709.20;;
2576;SDS011;1298;51.252;6.802;2023-07-29T08:15:05;860.65;;;804.33;;
2576;SDS011;1298;51.252;6.802;2023-07-29T08:17:51;764.72;;;711.47;;
2576;SDS011;1298;51.252;6.802;2023-07-29T08:20:38;790.10;;;736.00;;
2576;SDS011;1298;51.252;6.802;2023-07-29T08:23:24;782.13;;;728.45;;
2576;SDS011;1298;51.252;6.802;2023-07-29T08:26:10;785.83;;;732.03;;
2576;SDS011;1298;51.252;6.802;2023-07-29T08:28:55;871.25;;;814.35;;
2576;SDS011;1298;51.252;6.802;2023-07-29T08:31:41;781.38;;;727.67;;
2576;SDS011;1298;51.252;6.802;2023-07-29T08:34:27;776.03;;;722.33;;
2576;SDS011;1298;51.252;6.802;2023-07-29T08:37:14;779.20;;;725.50;;
2576;SDS011;1298;51.252;6.802;2023-07-29T08:39:59;879.53;;;822.50;;
2576;SDS011;1298;51.252;6.802;2023-07-29T08:42:46;790.53;;;736.63;;
2576;SDS011;1298;51.252;6.802;2023-07-29T08:45:34;786.10;;;732.13;;
2576;SDS011;1298;51.252;6.802;2023-07-29T08:48:22;776.75;;;723.08;;
2576;SDS011;1298;51.252;6.802;2023-07-29T08:51:14;781.25;;;727.28;;
2576;SDS011;1298;51.252;6.802;2023-07-29T08:54:02;790.05;;;735.95;;
2576;SDS011;1298;51.252;6.802;2023-07-29T08:56:47;872.80;;;815.58;;
2576;SDS011;1298;51.252;6.802;2023-07-29T08:59:33;796.65;;;742.20;;
2576;SDS011;1298;51.252;6.802;2023-07-29T09:02:19;896.88;;;839.05;;
2576;SDS011;1298;51.252;6.802;2023-07-29T09:05:04;833.25;;;777.83;;
2576;SDS011;1298;51.252;6.802;2023-07-29T09:07:51;825.78;;;770.58;;
2576;SDS011;1298;51.252;6.802;2023-07-29T09:10:40;836.08;;;780.47;;
2576;SDS011;1298;51.252;6.802;2023-07-29T09:13:25;856.58;;;800.35;;
2576;SDS011;1298;51.252;6.802;2023-07-29T09:16:11;810.88;;;756.13;;
2576;SDS011;1298;51.252;6.802;2023-07-29T09:19:00;815.90;;;761.17;;
2576;SDS011;1298;51.252;6.802;2023-07-29T09:21:46;826.78;;;771.47;;
2576;SDS011;1298;51.252;6.802;2023-07-29T09:24:32;813.63;;;758.88;;
2576;SDS011;1298;51.252;6.802;2023-07-29T09:27:25;804.75;;;750.22;;
2576;SDS011;1298;51.252;6.802;2023-07-29T09:30:15;785.58;;;731.75;;
2576;SDS011;1298;51.252;6.802;2023-07-29T09:33:00;837.83;;;782.20;;
2576;SDS011;1298;51.252;6.802;2023-07-29T09:35:46;806.45;;;751.92;;
2576;SDS011;1298;51.252;6.802;2023-07-29T09:38:32;830.13;;;774.95;;
2576;SDS011;1298;51.252;6.802;2023-07-29T09:41:17;874.00;;;817.30;;
2576;SDS011;1298;51.252;6.802;2023-07-29T09:44:05;836.80;;;781.20;;
2576;SDS011;1298;51.252;6.802;2023-07-29T09:46:51;816.42;;;761.25;;
2576;SDS011;1298;51.252;6.802;2023-07-29T09:49:37;789.42;;;735.35;;
2576;SDS011;1298;51.252;6.802;2023-07-29T09:52:22;906.70;;;848.75;;
2576;SDS011;1298;51.252;6.802;2023-07-29T09:55:09;815.13;;;760.30;;
2576;SDS011;1298;51.252;6.802;2023-07-29T09:57:56;819.08;;;764.22;;
2576;SDS011;1298;51.252;6.802;2023-07-29T10:00:45;793.90;;;739.65;;
2576;SDS011;1298;51.252;6.802;2023-07-29T10:03:32;820.80;;;765.75;;
2576;SDS011;1298;51.252;6.802;2023-07-29T10:06:18;825.70;;;770.30;;
2576;SDS011;1298;51.252;6.802;2023-07-29T10:09:05;843.47;;;787.83;;
2576;SDS011;1298;51.252;6.802;2023-07-29T10:11:50;845.55;;;789.67;;
2576;SDS011;1298;51.252;6.802;2023-07-29T10:14:36;849.10;;;792.88;;
2576;SDS011;1298;51.252;6.802;2023-07-29T10:17:24;862.28;;;805.35;;
2576;SDS011;1298;51.252;6.802;2023-07-29T10:20:11;844.30;;;788.03;;
2576;SDS011;1298;51.252;6.802;2023-07-29T10:22:58;937.33;;;877.78;;
2576;SDS011;1298;51.252;6.802;2023-07-29T10:25:46;946.53;;;886.77;;
2576;SDS011;1298;51.252;6.802;2023-07-29T10:28:35;900.37;;;842.27;;
2576;SDS011;1298;51.252;6.802;2023-07-29T10:31:25;929.10;;;870.20;;
2576;SDS011;1298;51.252;6.802;2023-07-29T10:34:13;861.55;;;804.88;;
2576;SDS011;1298;51.252;6.802;2023-07-29T10:36:59;855.67;;;799.30;;
2576;SDS011;1298;51.252;6.802;2023-07-29T10:39:51;943.70;;;884.33;;
2576;SDS011;1298;51.252;6.802;2023-07-29T10:42:38;855.27;;;799.10;;
2576;SDS011;1298;51.252;6.802;2023-07-29T10:45:45;948.95;;;889.08;;
2576;SDS011;1298;51.252;6.802;2023-07-29T10:48:40;891.33;;;833.75;;
2576;SDS011;1298;51.252;6.802;2023-07-29T10:51:29;873.30;;;816.13;;
2576;SDS011;1298;51.252;6.802;2023-07-29T10:54:16;931.60;;;872.23;;
2576;SDS011;1298;51.252;6.802;2023-07-29T10:57:02;863.57;;;806.93;;
2576;SDS011;1298;51.252;6.802;2023-07-29T10:59:53;869.30;;;811.83;;
2576;SDS011;1298;51.252;6.802;2023-07-29T11:02:40;912.92;;;854.67;;
2576;SDS011;1298;51.252;6.802;2023-07-29T11:05:26;950.25;;;890.60;;
2576;SDS011;1298;51.252;6.802;2023-07-29T11:08:19;950.97;;;891.20;;
2576;SDS011;1298;51.252;6.802;2023-07-29T11:11:07;856.67;;;800.27;;
2576;SDS011;1298;51.252;6.802;2023-07-29T11:13:53;891.35;;;833.58;;
2576;SDS011;1298;51.252;6.802;2023-07-29T11:16:38;958.80;;;898.43;;
2576;SDS011;1298;51.252;6.802;2023-07-29T11:19:25;946.22;;;886.28;;
2576;SDS011;1298;51.252;6.802;2023-07-29T11:22:11;929.65;;;870.63;;
2576;SDS011;1298;51.252;6.802;2023-07-29T11:24:58;932.13;;;872.95;;
2576;SDS011;1298;51.252;6.802;2023-07-29T11:27:44;837.67;;;781.95;;
2576;SDS011;1298;51.252;6.802;2023-07-29T11:30:30;948.30;;;888.58;;
2576;SDS011;1298;51.252;6.802;2023-07-29T11:33:17;845.80;;;789.28;;
2576;SDS011;1298;51.252;6.802;2023-07-29T11:36:04;833.42;;;777.83;;
2576;SDS011;1298;51.252;6.802;2023-07-29T11:38:50;925.33;;;866.42;;
2576;SDS011;1298;51.252;6.802;2023-07-29T11:41:37;942.40;;;883.03;;
2576;SDS011;1298;51.252;6.802;2023-07-29T11:44:22;921.67;;;862.90;;
2576;SDS011;1298;51.252;6.802;2023-07-29T11:47:09;849.20;;;793.50;;
2576;SDS011;1298;51.252;6.802;2023-07-29T11:49:58;852.35;;;796.08;;
2576;SDS011;1298;51.252;6.802;2023-07-29T11:52:44;890.85;;;833.47;;
2576;SDS011;1298;51.252;6.802;2023-07-29T11:55:31;942.35;;;881.85;;
2576;SDS011;1298;51.252;6.802;2023-07-29T11:58:20;830.20;;;774.88;;
2576;SDS011;1298;51.252;6.802;2023-07-29T12:01:06;930.78;;;871.88;;
2576;SDS011;1298;51.252;6.802;2023-07-29T12:03:53;922.53;;;863.55;;
2576;SDS011;1298;51.252;6.802;2023-07-29T12:06:39;841.47;;;785.20;;
2576;SDS011;1298;51.252;6.802;2023-07-29T12:09:26;946.40;;;887.00;;
2576;SDS011;1298;51.252;6.802;2023-07-29T12:12:12;853.47;;;797.00;;
2576;SDS011;1298;51.252;6.802;2023-07-29T12:14:59;871.53;;;814.33;;
2576;SDS011;1298;51.252;6.802;2023-07-29T12:17:45;945.63;;;886.03;;
2576;SDS011;1298;51.252;6.802;2023-07-29T12:20:30;893.72;;;835.47;;
2576;SDS011;1298;51.252;6.802;2023-07-29T12:23:16;879.90;;;822.30;;
2576;SDS011;1298;51.252;6.802;2023-07-29T12:26:09;882.53;;;824.90;;
2576;SDS011;1298;51.252;6.802;2023-07-29T12:28:55;910.47;;;851.70;;
2576;SDS011;1298;51.252;6.802;2023-07-29T12:31:42;960.50;;;900.00;;
2576;SDS011;1298;51.252;6.802;2023-07-29T12:34:28;920.73;;;861.83;;
2576;SDS011;1298;51.252;6.802;2023-07-29T12:37:14;881.10;;;823.90;;
2576;SDS011;1298;51.252;6.802;2023-07-29T12:40:00;917.83;;;859.33;;
2576;SDS011;1298;51.252;6.802;2023-07-29T12:42:47;927.97;;;869.07;;
2576;SDS011;1298;51.252;6.802;2023-07-29T12:45:35;899.03;;;840.87;;
2576;SDS011;1298;51.252;6.802;2023-07-29T12:48:25;918.70;;;860.13;;
2576;SDS011;1298;51.252;6.802;2023-07-29T12:51:10;910.03;;;851.67;;
2576;SDS011;1298;51.252;6.802;2023-07-29T12:53:56;911.07;;;852.77;;
2576;SDS011;1298;51.252;6.802;2023-07-29T12:56:42;986.03;;;923.47;;
2576;SDS011;1298;51.252;6.802;2023-07-29T12:59:28;974.27;;;913.40;;
2576;SDS011;1298;51.252;6.802;2023-07-29T13:02:13;897.77;;;839.67;;
2576;SDS011;1298;51.252;6.802;2023-07-29T13:05:00;913.60;;;855.27;;
2576;SDS011;1298;51.252;6.802;2023-07-29T13:07:46;919.27;;;860.33;;
2576;SDS011;1298;51.252;6.802;2023-07-29T13:10:31;895.77;;;837.60;;
2576;SDS011;1298;51.252;6.802;2023-07-29T13:13:17;904.20;;;845.93;;
2576;SDS011;1298;51.252;6.802;2023-07-29T13:16:02;986.47;;;924.87;;
2576;SDS011;1298;51.252;6.802;2023-07-29T13:18:48;898.00;;;839.83;;
2576;SDS011;1298;51.252;6.802;2023-07-29T13:21:35;893.70;;;835.72;;
2576;SDS011;1298;51.252;6.802;2023-07-29T13:24:21;893.13;;;835.13;;
2576;SDS011;1298;51.252;6.802;2023-07-29T13:27:06;885.30;;;827.63;;
2576;SDS011;1298;51.252;6.802;2023-07-29T13:29:52;893.77;;;835.97;;
2576;SDS011;1298;51.252;6.802;2023-07-29T13:32:37;975.78;;;914.95;;
2576;SDS011;1298;51.252;6.802;2023-07-29T13:35:23;894.53;;;836.67;;
2576;SDS011;1298;51.252;6.802;2023-07-29T13:38:09;891.83;;;834.27;;
2576;SDS011;1298;51.252;6.802;2023-07-29T13:40:54;928.65;;;869.60;;
2576;SDS011;1298;51.252;6.802;2023-07-29T13:43:40;854.33;;;797.97;;
2576;SDS011;1298;51.252;6.802;2023-07-29T13:46:26;952.87;;;893.00;;
2576;SDS011;1298;51.252;6.802;2023-07-29T13:49:11;856.70;;;800.38;;
2576;SDS011;1298;51.252;6.802;2023-07-29T13:51:57;864.10;;;807.38;;
2576;SDS011;1298;51.252;6.802;2023-07-29T13:54:44;938.80;;;879.20;;
2576;SDS011;1298;51.252;6.802;2023-07-29T13:57:29;951.70;;;891.95;;
2576;SDS011;1298;51.252;6.802;2023-07-29T14:00:15;854.03;;;797.60;;
2576;SDS011;1298;51.252;6.802;2023-07-29T14:03:00;896.17;;;838.37;;
2576;SDS011;1298;51.252;6.802;2023-07-29T14:05:46;865.80;;;808.87;;
2576;SDS011;1298;51.252;6.802;2023-07-29T14:08:31;903.73;;;845.47;;
2576;SDS011;1298;51.252;6.802;2023-07-29T14:11:20;882.10;;;824.27;;
2576;SDS011;1298;51.252;6.802;2023-07-29T14:14:06;881.95;;;824.47;;
2576;SDS011;1298;51.252;6.802;2023-07-29T14:16:51;898.10;;;840.03;;
2576;SDS011;1298;51.252;6.802;2023-07-29T14:19:37;893.17;;;835.47;;
2576;SDS011;1298;51.252;6.802;2023-07-29T14:22:23;909.27;;;851.10;;
2576;SDS011;1298;51.252;6.802;2023-07-29T14:25:08;872.37;;;815.33;;
2576;SDS011;1298;51.252;6.802;2023-07-29T14:27:56;853.15;;;796.60;;
2576;SDS011;1298;51.252;6.802;2023-07-29T14:30:41;880.63;;;823.30;;
2576;SDS011;1298;51.252;6.802;2023-07-29T14:33:26;861.13;;;804.23;;
2576;SDS011;1298;51.252;6.802;2023-07-29T14:36:12;896.60;;;838.03;;
2576;SDS011;1298;51.252;6.802;2023-07-29T14:38:57;861.83;;;804.93;;
2576;SDS011;1298;51.252;6.802;2023-07-29T14:41:43;892.27;;;834.60;;
2576;SDS011;1298;51.252;6.802;2023-07-29T14:44:30;876.50;;;819.00;;
2576;SDS011;1298;51.252;6.802;2023-07-29T14:47:16;955.43;;;895.37;;
2576;SDS011;1298;51.252;6.802;2023-07-29T14:50:01;886.17;;;828.75;;
2576;SDS011;1298;51.252;6.802;2023-07-29T14:52:47;859.05;;;802.58;;
2576;SDS011;1298;51.252;6.802;2023-07-29T14:55:33;926.50;;;867.53;;
2576;SDS011;1298;51.252;6.802;2023-07-29T14:58:18;849.75;;;793.47;;
2576;SDS011;1298;51.252;6.802;2023-07-29T15:01:05;865.53;;;808.73;;
2576;SDS011;1298;51.252;6.802;2023-07-29T15:03:51;855.58;;;799.08;;
2576;SDS011;1298;51.252;6.802;2023-07-29T15:06:37;867.20;;;810.40;;
2576;SDS011;1298;51.252;6.802;2023-07-29T15:09:22;858.05;;;801.42;;
2576;SDS011;1298;51.252;6.802;2023-07-29T15:12:08;954.63;;;894.67;;
2576;SDS011;1298;51.252;6.802;2023-07-29T15:20:06;967.03;;;905.77;;
2576;SDS011;1298;51.252;6.802;2023-07-29T15:22:53;965.67;;;904.87;;
2576;SDS011;1298;51.252;6.802;2023-07-29T15:25:38;946.37;;;885.70;;
2576;SDS011;1298;51.252;6.802;2023-07-29T15:28:25;979.37;;;917.73;;
2576;SDS011;1298;51.252;6.802;2023-07-29T15:31:11;983.97;;;922.30;;
2576;SDS011;1298;51.252;6.802;2023-07-29T15:33:57;1002.23;;;939.90;;
2576;SDS011;1298;51.252;6.802;2023-07-29T15:36:44;1019.43;;;956.47;;
2576;SDS011;1298;51.252;6.802;2023-07-29T15:39:30;990.43;;;928.57;;
2576;SDS011;1298;51.252;6.802;2023-07-29T15:42:15;1025.33;;;961.67;;
2576;SDS011;1298;51.252;6.802;2023-07-29T15:45:01;1014.77;;;950.80;;
2576;SDS011;1298;51.252;6.802;2023-07-29T15:47:47;1043.53;;;978.97;;
2576;SDS011;1298;51.252;6.802;2023-07-29T15:50:32;1045.10;;;980.23;;
2576;SDS011;1298;51.252;6.802;2023-07-29T15:53:19;1025.57;;;961.50;;
2576;SDS011;1298;51.252;6.802;2023-07-29T15:56:05;1038.77;;;974.60;;
2576;SDS011;1298;51.252;6.802;2023-07-29T15:58:50;1116.47;;;999.90;;
2576;SDS011;1298;51.252;6.802;2023-07-29T16:01:36;1106.50;;;999.90;;
2576;SDS011;1298;51.252;6.802;2023-07-29T16:04:21;1041.90;;;977.53;;
2576;SDS011;1298;51.252;6.802;2023-07-29T16:07:07;1101.67;;;999.90;;
2576;SDS011;1298;51.252;6.802;2023-07-29T16:12:39;1114.80;;;999.90;;
2576;SDS011;1298;51.252;6.802;2023-07-29T16:15:25;1019.50;;;956.17;;
2576;SDS011;1298;51.252;6.802;2023-07-29T16:18:11;1066.97;;;997.47;;
2576;SDS011;1298;51.252;6.802;2023-07-29T16:20:56;1063.53;;;996.37;;